createdAt,value
2022-10-19T00:00:08.623Z,4.77
2022-10-19T00:01:08.608Z,4.77
2022-10-19T00:02:08.704Z,6.54
2022-10-19T00:03:08.636Z,6.54
2022-10-19T00:04:08.969Z,5.73
2022-10-19T00:05:08.594Z,5.73
2022-10-19T00:06:08.595Z,5.42
2022-10-19T00:07:08.590Z,5.42
2022-10-19T00:08:08.600Z,5.15
2022-10-19T00:09:08.602Z,5.15
2022-10-19T00:10:08.586Z,4.72
2022-10-19T00:11:08.581Z,4.72
2022-10-19T00:12:08.598Z,5.05
2022-10-19T00:13:08.582Z,5.05
2022-10-19T00:14:08.596Z,5.1
2022-10-19T00:15:08.581Z,5.1
2022-10-19T00:16:11.324Z,4.53
2022-10-19T00:17:08.580Z,4.53
2022-10-19T00:18:08.571Z,4.86
2022-10-19T00:19:08.620Z,4.86
2022-10-19T00:20:08.604Z,4.43
2022-10-19T00:21:08.570Z,4.43
2022-10-19T00:22:11.607Z,5.31
2022-10-19T00:23:08.573Z,5.31
2022-10-19T00:24:08.586Z,5.71
2022-10-19T00:25:08.563Z,5.71
2022-10-19T00:26:08.581Z,4.65
2022-10-19T00:27:08.568Z,4.65
2022-10-19T00:28:08.566Z,4.83
2022-10-19T00:29:08.618Z,4.83
2022-10-19T00:30:08.557Z,4.65
2022-10-19T00:31:08.586Z,4.65
2022-10-19T00:32:08.563Z,4.78
2022-10-19T00:33:08.577Z,4.78
2022-10-19T00:34:08.564Z,4.88
2022-10-19T00:35:08.594Z,4.88
2022-10-19T00:36:08.584Z,5.47
2022-10-19T00:37:08.562Z,5.47
2022-10-19T00:38:08.572Z,4.94
2022-10-19T00:39:08.552Z,4.94
2022-10-19T00:40:08.553Z,4.46
2022-10-19T00:41:08.555Z,4.46
2022-10-19T00:42:08.544Z,4.72
2022-10-19T00:43:08.559Z,4.72
2022-10-19T00:44:08.563Z,4.95
2022-10-19T00:45:08.557Z,4.95
2022-10-19T00:46:08.549Z,4.83
2022-10-19T00:47:08.544Z,4.83
2022-10-19T00:48:08.549Z,5.05
2022-10-19T00:49:10.729Z,5.05
2022-10-19T00:50:08.545Z,6.53
2022-10-19T00:51:08.563Z,6.53
2022-10-19T00:52:08.542Z,5.06
2022-10-19T00:53:08.555Z,5.06
2022-10-19T00:54:08.537Z,5.39
2022-10-19T00:55:08.550Z,5.39
2022-10-19T00:56:08.540Z,4.96
2022-10-19T00:57:08.532Z,4.96
2022-10-19T00:58:08.527Z,5.46
2022-10-19T00:59:08.545Z,5.46
2022-10-19T01:00:08.531Z,6.11
2022-10-19T01:01:08.576Z,6.11
2022-10-19T01:02:08.528Z,4.77
2022-10-19T01:03:08.519Z,4.77
2022-10-19T01:04:08.542Z,4.97
2022-10-19T01:05:08.520Z,4.97
2022-10-19T01:06:08.540Z,7.44
2022-10-19T01:07:08.543Z,7.44
2022-10-19T01:08:08.522Z,4.84
2022-10-19T01:09:08.531Z,4.84
2022-10-19T01:10:08.529Z,4.83
2022-10-19T01:11:08.513Z,4.83
2022-10-19T01:12:08.517Z,5.12
2022-10-19T01:13:08.508Z,5.12
2022-10-19T01:14:08.515Z,4.68
2022-10-19T01:15:08.524Z,4.68
2022-10-19T01:16:08.508Z,5.21
2022-10-19T01:17:08.506Z,5.21
2022-10-19T01:18:08.514Z,5.22
2022-10-19T01:19:08.503Z,5.22
2022-10-19T01:20:08.559Z,4.57
2022-10-19T01:21:08.519Z,4.57
2022-10-19T01:22:08.506Z,4.65
2022-10-19T01:23:08.531Z,4.65
2022-10-19T01:24:08.503Z,4.68
2022-10-19T01:25:08.510Z,4.68
2022-10-19T01:26:08.507Z,4.57
2022-10-19T01:27:08.494Z,4.57
2022-10-19T01:28:08.493Z,4.37
2022-10-19T01:29:08.594Z,4.37
2022-10-19T01:30:08.520Z,5.3
2022-10-19T01:31:08.497Z,5.3
2022-10-19T01:32:08.517Z,4.14
2022-10-19T01:33:08.496Z,4.14
2022-10-19T01:34:08.487Z,4.23
2022-10-19T01:35:08.491Z,4.23
2022-10-19T01:36:08.488Z,5.95
2022-10-19T01:37:08.495Z,5.95
2022-10-19T01:38:08.490Z,4.91
2022-10-19T01:39:08.503Z,4.91
2022-10-19T01:40:08.483Z,5.45
2022-10-19T01:41:08.493Z,5.45
2022-10-19T01:42:08.482Z,4.54
2022-10-19T01:43:08.506Z,4.54
2022-10-19T01:44:08.476Z,5.09
2022-10-19T01:45:08.479Z,5.09
2022-10-19T01:46:08.489Z,4.97
2022-10-19T01:47:08.470Z,4.97
2022-10-19T01:48:08.483Z,4.05
2022-10-19T01:49:08.482Z,4.05
2022-10-19T01:50:08.467Z,4.41
2022-10-19T01:51:08.487Z,4.41
2022-10-19T01:52:08.487Z,8.31
2022-10-19T01:53:08.470Z,8.31
2022-10-19T01:54:08.458Z,5.58
2022-10-19T01:55:08.487Z,5.58
2022-10-19T01:56:08.479Z,4.72
2022-10-19T01:57:08.463Z,4.72
2022-10-19T01:58:09.664Z,5.21
2022-10-19T01:59:08.455Z,5.21
2022-10-19T02:00:08.459Z,4.39
2022-10-19T02:01:08.630Z,4.39
2022-10-19T02:02:08.456Z,5.44
2022-10-19T02:03:08.466Z,5.44
2022-10-19T02:04:08.459Z,5.45
2022-10-19T02:05:08.461Z,5.45
2022-10-19T02:06:08.462Z,4.78
2022-10-19T02:07:08.446Z,4.78
2022-10-19T02:08:08.448Z,4.46
2022-10-19T02:09:08.467Z,4.46
2022-10-19T02:10:08.505Z,4.06
2022-10-19T02:11:08.474Z,4.06
2022-10-19T02:12:08.454Z,4.43
2022-10-19T02:13:08.460Z,4.43
2022-10-19T02:14:08.449Z,4.47
2022-10-19T02:15:08.438Z,4.47
2022-10-19T02:16:08.449Z,5.03
2022-10-19T02:17:08.444Z,5.03
2022-10-19T02:18:08.455Z,4.19
2022-10-19T02:19:08.436Z,4.19
2022-10-19T02:20:08.471Z,5.02
2022-10-19T02:21:08.433Z,5.02
2022-10-19T02:22:08.447Z,4.36
2022-10-19T02:23:08.427Z,4.36
2022-10-19T02:24:08.444Z,5.48
2022-10-19T02:25:08.427Z,5.48
2022-10-19T02:26:08.424Z,4.35
2022-10-19T02:27:08.459Z,4.35
2022-10-19T02:28:08.460Z,3.79
2022-10-19T02:29:08.439Z,3.79
2022-10-19T02:30:08.424Z,5.81
2022-10-19T02:31:08.438Z,5.81
2022-10-19T02:32:08.444Z,5.75
2022-10-19T02:33:08.414Z,5.75
2022-10-19T02:34:08.432Z,5.47
2022-10-19T02:35:08.418Z,5.47
2022-10-19T02:36:08.434Z,5.58
2022-10-19T02:37:08.421Z,5.58
2022-10-19T02:38:08.409Z,6.17
2022-10-19T02:39:08.411Z,6.17
2022-10-19T02:40:08.421Z,7.24
2022-10-19T02:41:08.413Z,7.24
2022-10-19T02:42:08.413Z,5.28
2022-10-19T02:43:08.436Z,5.28
2022-10-19T02:44:08.420Z,5.36
2022-10-19T02:45:08.405Z,5.36
2022-10-19T02:46:08.402Z,4.44
2022-10-19T02:47:08.397Z,4.44
2022-10-19T02:48:08.405Z,5.14
2022-10-19T02:49:08.414Z,5.14
2022-10-19T02:50:08.417Z,5
2022-10-19T02:51:08.405Z,5
2022-10-19T02:52:08.402Z,5.81
2022-10-19T02:53:08.413Z,5.81
2022-10-19T02:54:08.434Z,5.24
2022-10-19T02:55:08.401Z,5.24
2022-10-19T02:56:08.395Z,4.96
2022-10-19T02:57:08.397Z,4.96
2022-10-19T02:58:08.394Z,4.79
2022-10-19T02:59:08.456Z,4.79
2022-10-19T03:00:08.387Z,4.42
2022-10-19T03:01:08.461Z,4.42
2022-10-19T03:02:08.393Z,5.07
2022-10-19T03:03:08.377Z,5.07
2022-10-19T03:04:08.404Z,5.49
2022-10-19T03:05:08.396Z,5.49
2022-10-19T03:06:08.382Z,6.33
2022-10-19T03:07:08.379Z,6.33
2022-10-19T03:08:08.398Z,5.06
2022-10-19T03:09:08.387Z,5.06
2022-10-19T03:10:08.408Z,7.95
2022-10-19T03:11:08.380Z,7.95
2022-10-19T03:12:08.587Z,3.87
2022-10-19T03:13:08.379Z,3.87
2022-10-19T03:14:08.389Z,5.11
2022-10-19T03:15:08.392Z,5.11
2022-10-19T03:16:08.392Z,5.08
2022-10-19T03:17:08.391Z,5.08
2022-10-19T03:18:08.365Z,4.7
2022-10-19T03:19:08.365Z,4.7
2022-10-19T03:20:08.425Z,4.21
2022-10-19T03:21:08.380Z,4.21
2022-10-19T03:22:08.362Z,4.47
2022-10-19T03:23:08.507Z,4.47
2022-10-19T03:24:08.362Z,4.85
2022-10-19T03:25:08.366Z,4.85
2022-10-19T03:26:11.422Z,5.38
2022-10-19T03:27:08.376Z,5.38
2022-10-19T03:28:08.351Z,4.01
2022-10-19T03:29:08.365Z,4.01
2022-10-19T03:30:09.541Z,4.63
2022-10-19T03:31:08.377Z,4.63
2022-10-19T03:32:08.349Z,5.24
2022-10-19T03:33:08.355Z,5.24
2022-10-19T03:34:08.365Z,4.73
2022-10-19T03:35:08.362Z,4.73
2022-10-19T03:36:08.342Z,4.77
2022-10-19T03:37:08.345Z,4.77
2022-10-19T03:38:08.346Z,4.69
2022-10-19T03:39:08.338Z,4.69
2022-10-19T03:40:08.355Z,5.03
2022-10-19T03:41:08.348Z,5.03
2022-10-19T03:42:08.342Z,4.41
2022-10-19T03:43:08.353Z,4.41
2022-10-19T03:44:08.353Z,5.7
2022-10-19T03:45:08.397Z,5.7
2022-10-19T03:46:08.351Z,4.24
2022-10-19T03:47:08.422Z,4.24
2022-10-19T03:48:08.345Z,4.19
2022-10-19T03:49:08.347Z,4.19
2022-10-19T03:50:08.349Z,4.1
2022-10-19T03:51:08.346Z,4.1
2022-10-19T03:52:08.453Z,3.94
2022-10-19T03:53:08.337Z,3.94
2022-10-19T03:54:08.359Z,3.69
2022-10-19T03:55:08.324Z,3.69
2022-10-19T03:56:08.321Z,3.9
2022-10-19T03:57:08.342Z,3.9
2022-10-19T03:58:08.327Z,4.97
2022-10-19T03:59:08.323Z,4.97
2022-10-19T04:00:08.334Z,5.93
2022-10-19T04:01:08.422Z,5.93
2022-10-19T04:02:08.336Z,6.08
2022-10-19T04:03:08.344Z,6.08
2022-10-19T04:04:08.319Z,4.84
2022-10-19T04:05:08.312Z,4.84
2022-10-19T04:06:08.310Z,6.41
2022-10-19T04:07:08.324Z,6.41
2022-10-19T04:08:08.308Z,4.12
2022-10-19T04:09:08.318Z,4.12
2022-10-19T04:10:08.325Z,5.02
2022-10-19T04:11:08.315Z,5.02
2022-10-19T04:12:08.303Z,4.48
2022-10-19T04:13:08.350Z,4.48
2022-10-19T04:15:08.317Z,4.57
2022-10-19T04:16:08.314Z,4.27
2022-10-19T04:17:08.392Z,4.27
2022-10-19T04:18:08.297Z,3.74
2022-10-19T04:19:08.320Z,3.74
2022-10-19T04:20:08.339Z,4.22
2022-10-19T04:21:08.293Z,4.22
2022-10-19T04:22:08.327Z,3.96
2022-10-19T04:23:08.334Z,3.96
2022-10-19T04:24:08.480Z,4.7
2022-10-19T04:25:08.306Z,4.7
2022-10-19T04:26:08.291Z,4.14
2022-10-19T04:27:08.290Z,4.14
2022-10-19T04:28:08.288Z,4.7
2022-10-19T04:29:08.367Z,4.7
2022-10-19T04:30:08.309Z,3.5
2022-10-19T04:31:08.280Z,3.5
2022-10-19T04:32:08.298Z,7.91
2022-10-19T04:33:08.299Z,7.91
2022-10-19T04:34:08.367Z,4.3
2022-10-19T04:35:08.306Z,4.3
2022-10-19T04:36:08.297Z,4.43
2022-10-19T04:37:08.287Z,4.43
2022-10-19T04:38:08.279Z,4.33
2022-10-19T04:39:08.286Z,4.33
2022-10-19T04:40:12.712Z,4.96
2022-10-19T04:41:11.272Z,4.96
2022-10-19T04:42:08.273Z,5.35
2022-10-19T04:43:08.269Z,5.35
2022-10-19T04:44:08.283Z,3.89
2022-10-19T04:45:08.274Z,3.89
2022-10-19T04:46:08.270Z,5.5
2022-10-19T04:47:08.273Z,5.5
2022-10-19T04:48:08.262Z,5.23
2022-10-19T04:49:08.305Z,5.23
2022-10-19T04:50:08.263Z,6.63
2022-10-19T04:51:08.372Z,6.63
2022-10-19T04:52:08.255Z,5.93
2022-10-19T04:53:08.257Z,5.93
2022-10-19T04:54:08.343Z,4.17
2022-10-19T04:55:08.268Z,4.17
2022-10-19T04:56:08.254Z,4.41
2022-10-19T04:57:08.264Z,4.41
2022-10-19T04:58:08.254Z,5.07
2022-10-19T04:59:08.247Z,5.07
2022-10-19T05:00:08.257Z,5.08
2022-10-19T05:01:08.326Z,5.08
2022-10-19T05:02:08.255Z,3.97
2022-10-19T05:03:08.244Z,3.97
2022-10-19T05:04:08.260Z,4.95
2022-10-19T05:05:08.247Z,4.95
2022-10-19T05:06:08.243Z,5.86
2022-10-19T05:07:08.282Z,5.86
2022-10-19T05:08:08.244Z,6.28
2022-10-19T05:09:08.256Z,6.28
2022-10-19T05:10:08.267Z,4.57
2022-10-19T05:11:08.235Z,4.57
2022-10-19T05:12:08.235Z,3.85
2022-10-19T05:13:08.234Z,3.85
2022-10-19T05:14:08.246Z,4.33
2022-10-19T05:15:08.240Z,4.33
2022-10-19T05:16:08.253Z,3.72
2022-10-19T05:17:08.236Z,3.72
2022-10-19T05:18:08.234Z,4.29
2022-10-19T05:19:08.243Z,4.29
2022-10-19T05:20:08.296Z,5.13
2022-10-19T05:21:08.219Z,5.13
2022-10-19T05:22:08.234Z,3.54
2022-10-19T05:23:08.251Z,3.54
2022-10-19T05:24:08.219Z,3.31
2022-10-19T05:25:08.235Z,3.31
2022-10-19T05:26:08.290Z,4.17
2022-10-19T05:27:08.223Z,4.17
2022-10-19T05:28:08.214Z,3.54
2022-10-19T05:29:08.255Z,3.54
2022-10-19T05:30:09.257Z,4.06
2022-10-19T05:31:08.227Z,4.06
2022-10-19T05:32:08.211Z,2.99
2022-10-19T05:33:08.218Z,2.99
2022-10-19T05:35:08.211Z,3.92
2022-10-19T05:36:08.228Z,5.36
2022-10-19T05:37:08.227Z,5.36
2022-10-19T05:38:08.223Z,4.45
2022-10-19T05:39:08.241Z,4.45
2022-10-19T05:40:08.209Z,3.55
2022-10-19T05:41:08.196Z,3.55
2022-10-19T05:42:08.223Z,3.52
2022-10-19T05:43:08.197Z,3.52
2022-10-19T05:44:08.205Z,4.02
2022-10-19T05:45:08.217Z,4.02
2022-10-19T05:46:08.212Z,3.8
2022-10-19T05:47:08.211Z,3.8
2022-10-19T05:48:08.190Z,5.66
2022-10-19T05:49:08.195Z,5.66
2022-10-19T05:50:08.201Z,4.35
2022-10-19T05:51:08.192Z,4.35
2022-10-19T05:52:08.190Z,4.03
2022-10-19T05:53:08.190Z,4.03
2022-10-19T05:54:08.190Z,3.5
2022-10-19T05:55:08.275Z,3.5
2022-10-19T05:56:08.189Z,3.98
2022-10-19T05:57:08.190Z,3.98
2022-10-19T05:58:08.186Z,4.24
2022-10-19T05:59:08.197Z,4.24
2022-10-19T06:00:08.183Z,4.35
2022-10-19T06:01:08.174Z,4.35
2022-10-19T06:02:08.225Z,4.24
2022-10-19T06:03:08.187Z,4.24
2022-10-19T06:04:08.260Z,3.74
2022-10-19T06:05:08.172Z,3.74
2022-10-19T06:06:08.208Z,3.51
2022-10-19T06:07:08.175Z,3.51
2022-10-19T06:08:08.172Z,3.29
2022-10-19T06:09:08.165Z,3.29
2022-10-19T06:10:08.169Z,3.35
2022-10-19T06:11:08.199Z,3.35
2022-10-19T06:12:08.171Z,3.35
2022-10-19T06:13:08.162Z,3.35
2022-10-19T06:14:08.169Z,3.53
2022-10-19T06:15:08.158Z,3.53
2022-10-19T06:16:08.178Z,4
2022-10-19T06:17:08.164Z,4
2022-10-19T06:18:08.174Z,3.15
2022-10-19T06:19:08.172Z,3.15
2022-10-19T06:20:08.215Z,4.08
2022-10-19T06:21:08.151Z,4.08
2022-10-19T06:22:08.155Z,4.38
2022-10-19T06:23:08.151Z,4.38
2022-10-19T06:24:08.168Z,2.49
2022-10-19T06:25:08.170Z,2.49
2022-10-19T06:26:08.164Z,3.79
2022-10-19T06:27:08.306Z,3.79
2022-10-19T06:28:08.152Z,2.78
2022-10-19T06:29:08.146Z,2.78
2022-10-19T06:30:08.162Z,3.07
2022-10-19T06:31:09.362Z,3.07
2022-10-19T06:32:08.153Z,3.29
2022-10-19T06:33:08.153Z,3.29
2022-10-19T06:34:08.216Z,3.04
2022-10-19T06:35:08.174Z,3.04
2022-10-19T06:36:08.142Z,4.44
2022-10-19T06:37:08.133Z,4.44
2022-10-19T06:38:08.164Z,2.82
2022-10-19T06:39:08.148Z,2.82
2022-10-19T06:40:08.229Z,3.92
2022-10-19T06:41:08.126Z,3.92
2022-10-19T06:42:08.128Z,3.5
2022-10-19T06:43:08.164Z,3.5
2022-10-19T06:44:08.123Z,2.83
2022-10-19T06:45:08.164Z,2.83
2022-10-19T06:46:08.135Z,3.14
2022-10-19T06:47:08.134Z,3.14
2022-10-19T06:48:08.131Z,3.02
2022-10-19T06:49:08.128Z,3.02
2022-10-19T06:50:08.143Z,3.37
2022-10-19T06:51:08.133Z,3.37
2022-10-19T06:52:08.128Z,2.86
2022-10-19T06:53:08.134Z,2.86
2022-10-19T06:54:08.122Z,3.22
2022-10-19T06:55:08.113Z,3.22
2022-10-19T06:56:08.113Z,3.61
2022-10-19T06:57:08.152Z,3.61
2022-10-19T06:58:08.118Z,3.34
2022-10-19T06:59:08.140Z,3.34
2022-10-19T07:00:08.112Z,2.91
2022-10-19T07:01:08.237Z,2.91
2022-10-19T07:02:08.118Z,2.88
2022-10-19T07:03:08.110Z,2.88
2022-10-19T07:04:08.103Z,2.82
2022-10-19T07:05:08.108Z,2.82
2022-10-19T07:06:08.119Z,2.76
2022-10-19T07:07:08.114Z,2.76
2022-10-19T07:08:08.218Z,2.47
2022-10-19T07:09:08.099Z,2.47
2022-10-19T07:10:08.100Z,2.85
2022-10-19T07:11:08.103Z,2.85
2022-10-19T07:12:08.125Z,2.59
2022-10-19T07:14:08.106Z,2.7
2022-10-19T07:15:08.119Z,2.7
2022-10-19T07:16:08.085Z,4.26
2022-10-19T07:17:08.121Z,4.26
2022-10-19T07:18:08.096Z,3.66
2022-10-19T07:19:08.164Z,3.66
2022-10-19T07:20:08.115Z,2.96
2022-10-19T07:21:08.092Z,2.96
2022-10-19T07:22:08.212Z,2.98
2022-10-19T07:23:08.086Z,2.98
2022-10-19T07:24:08.081Z,2.51
2022-10-19T07:25:08.086Z,2.51
2022-10-19T07:26:08.084Z,3.34
2022-10-19T07:27:08.090Z,3.34
2022-10-19T07:28:08.094Z,4.8
2022-10-19T07:29:08.079Z,4.8
2022-10-19T07:30:08.079Z,4.25
2022-10-19T07:31:08.099Z,4.25
2022-10-19T07:32:08.104Z,2.83
2022-10-19T07:33:08.137Z,2.83
2022-10-19T07:34:08.085Z,3.6
2022-10-19T07:35:08.071Z,3.6
2022-10-19T07:36:08.072Z,3.02
2022-10-19T07:37:08.083Z,3.02
2022-10-19T07:38:08.072Z,2.52
2022-10-19T07:39:08.084Z,2.52
2022-10-19T07:40:08.073Z,3.29
2022-10-19T07:41:08.073Z,3.29
2022-10-19T07:42:08.158Z,2.79
2022-10-19T07:43:08.065Z,2.79
2022-10-19T07:44:09.901Z,3.6
2022-10-19T07:45:08.060Z,3.6
2022-10-19T07:46:08.069Z,4.08
2022-10-19T07:47:09.081Z,4.08
2022-10-19T07:48:08.067Z,2.79
2022-10-19T07:49:08.065Z,2.79
2022-10-19T07:50:08.129Z,3.02
2022-10-19T07:51:08.060Z,3.02
2022-10-19T07:52:08.066Z,2.41
2022-10-19T07:53:08.056Z,2.41
2022-10-19T07:54:08.045Z,2.79
2022-10-19T07:55:08.062Z,2.79
2022-10-19T07:56:08.058Z,2.42
2022-10-19T07:57:08.061Z,2.42
2022-10-19T07:58:08.073Z,3.59
2022-10-19T07:59:08.052Z,3.59
2022-10-19T08:00:08.038Z,2.51
2022-10-19T08:01:08.055Z,2.51
2022-10-19T08:02:08.176Z,2.42
2022-10-19T08:05:11.599Z,5.14
2022-10-19T08:06:08.029Z,3.42
2022-10-19T08:07:08.038Z,3.42
2022-10-19T08:08:08.044Z,3.4
2022-10-19T08:09:08.144Z,3.4
2022-10-19T08:10:08.026Z,2.93
2022-10-19T08:11:08.026Z,2.93
2022-10-19T08:12:11.167Z,2.85
2022-10-19T08:13:08.058Z,2.85
2022-10-19T08:14:08.027Z,2.85
2022-10-19T08:15:08.045Z,2.85
2022-10-19T08:16:08.023Z,2.39
2022-10-19T08:17:08.026Z,2.39
2022-10-19T08:18:08.054Z,3.57
2022-10-19T08:19:08.069Z,3.57
2022-10-19T08:20:08.052Z,2.78
2022-10-19T08:21:08.015Z,2.78
2022-10-19T08:22:08.011Z,2.97
2022-10-19T08:23:08.033Z,2.97
2022-10-19T08:24:08.015Z,2.35
2022-10-19T08:25:08.016Z,2.35
2022-10-19T08:26:08.006Z,2.75
2022-10-19T08:27:08.131Z,2.75
2022-10-19T08:28:08.016Z,3.05
2022-10-19T08:29:08.009Z,3.05
2022-10-19T08:30:08.004Z,3.36
2022-10-19T08:31:08.000Z,3.36
2022-10-19T08:32:08.018Z,3.06
2022-10-19T08:33:08.005Z,3.06
2022-10-19T08:34:07.999Z,5.3
2022-10-19T08:35:10.744Z,5.3
2022-10-19T08:36:07.995Z,2.64
2022-10-19T08:37:19.777Z,2.64
2022-10-19T08:38:08.014Z,2.9
2022-10-19T08:39:07.991Z,2.9
2022-10-19T08:40:08.001Z,2.58
2022-10-19T08:41:08.004Z,2.58
2022-10-19T08:42:08.035Z,2.06
2022-10-19T08:43:08.005Z,2.06
2022-10-19T08:44:10.122Z,3.36
2022-10-19T08:45:07.990Z,3.36
2022-10-19T08:46:07.990Z,3.89
2022-10-19T08:47:08.737Z,3.89
2022-10-19T08:48:07.992Z,3.8
2022-10-19T08:49:07.981Z,3.8
2022-10-19T08:50:07.979Z,2.57
2022-10-19T08:51:08.035Z,2.57
2022-10-19T08:52:08.002Z,2.51
2022-10-19T08:53:07.983Z,2.51
2022-10-19T08:54:07.985Z,2.68
2022-10-19T08:55:07.974Z,2.68
2022-10-19T08:56:07.990Z,2.45
2022-10-19T08:57:08.102Z,2.45
2022-10-19T08:58:07.969Z,7.43
2022-10-19T08:59:07.999Z,7.43
2022-10-19T09:00:07.975Z,14.15
2022-10-19T09:01:07.979Z,14.15
2022-10-19T09:02:07.975Z,7.01
2022-10-19T09:03:07.963Z,7.01
2022-10-19T09:04:07.964Z,8.77
2022-10-19T09:05:07.965Z,8.77
2022-10-19T09:06:07.979Z,8.42
2022-10-19T09:07:08.003Z,8.42
2022-10-19T09:08:07.964Z,7.71
2022-10-19T09:09:08.034Z,7.71
2022-10-19T09:10:07.996Z,10.41
2022-10-19T09:11:07.964Z,10.41
2022-10-19T09:12:07.957Z,11.07
2022-10-19T09:13:07.950Z,11.07
2022-10-19T09:14:07.975Z,12.03
2022-10-19T09:15:07.949Z,12.03
2022-10-19T09:16:07.950Z,6.14
2022-10-19T09:17:07.989Z,6.14
2022-10-19T09:18:07.954Z,7.65
2022-10-19T09:19:07.942Z,7.65
2022-10-19T09:20:07.953Z,4.86
2022-10-19T09:21:07.991Z,4.86
2022-10-19T09:22:07.962Z,7.23
2022-10-19T09:23:13.042Z,7.23
2022-10-19T09:24:07.942Z,11.87
2022-10-19T09:25:07.960Z,11.87
2022-10-19T09:26:07.936Z,6.78
2022-10-19T09:27:07.959Z,6.78
2022-10-19T09:28:07.946Z,7.58
2022-10-19T09:29:07.940Z,7.58
2022-10-19T09:30:08.005Z,5.79
2022-10-19T09:31:07.938Z,5.79
2022-10-19T09:32:07.937Z,6.93
2022-10-19T09:33:09.999Z,6.93
2022-10-19T09:34:07.934Z,6.65
2022-10-19T09:35:07.953Z,6.65
2022-10-19T09:36:07.933Z,7.74
2022-10-19T09:37:07.978Z,7.74
2022-10-19T09:38:07.929Z,4.48
2022-10-19T09:39:07.946Z,4.48
2022-10-19T09:40:07.985Z,5.37
2022-10-19T09:41:07.923Z,5.37
2022-10-19T09:42:07.921Z,6.05
2022-10-19T09:43:07.919Z,6.05
2022-10-19T09:44:07.918Z,7.01
2022-10-19T09:45:07.931Z,7.01
2022-10-19T09:46:16.639Z,10.9
2022-10-19T09:47:10.209Z,10.9
2022-10-19T09:48:12.816Z,11.71
2022-10-19T09:49:07.912Z,11.71
2022-10-19T09:50:07.929Z,14.36
2022-10-19T09:51:07.911Z,14.36
2022-10-19T09:52:07.908Z,7.81
2022-10-19T09:53:07.904Z,7.81
2022-10-19T09:54:07.902Z,7.21
2022-10-19T09:55:07.950Z,7.21
2022-10-19T09:56:07.911Z,6.95
2022-10-19T09:57:07.904Z,6.95
2022-10-19T09:58:07.901Z,9.27
2022-10-19T09:59:07.902Z,9.27
2022-10-19T10:00:07.913Z,7.06
2022-10-19T10:01:07.911Z,7.06
2022-10-19T10:02:07.938Z,4.87
2022-10-19T10:03:07.966Z,4.87
2022-10-19T10:04:07.901Z,6.12
2022-10-19T10:05:07.917Z,6.12
2022-10-19T10:06:07.903Z,7.91
2022-10-19T10:07:07.905Z,7.91
2022-10-19T10:08:07.896Z,4.96
2022-10-19T10:09:07.916Z,4.96
2022-10-19T10:10:07.905Z,7.33
2022-10-19T10:11:07.915Z,7.33
2022-10-19T10:12:07.912Z,5.28
2022-10-19T10:13:07.885Z,5.28
2022-10-19T10:14:09.943Z,7.47
2022-10-19T10:15:07.911Z,7.47
2022-10-19T10:16:07.878Z,7.38
2022-10-19T10:17:07.898Z,7.38
2022-10-19T10:18:07.880Z,5.34
2022-10-19T10:19:07.889Z,5.34
2022-10-19T10:20:07.882Z,5.39
2022-10-19T10:21:07.922Z,5.39
2022-10-19T10:22:07.883Z,7.71
2022-10-19T10:23:07.871Z,7.71
2022-10-19T10:24:07.881Z,5.08
2022-10-19T10:25:07.874Z,5.08
2022-10-19T10:26:07.882Z,5.05
2022-10-19T10:27:07.897Z,5.05
2022-10-19T10:28:07.865Z,6.14
2022-10-19T10:29:07.870Z,6.14
2022-10-19T10:30:07.867Z,6.36
2022-10-19T10:31:07.889Z,6.36
2022-10-19T10:32:07.872Z,5.94
2022-10-19T10:33:20.497Z,5.94
2022-10-19T10:34:22.500Z,4.77
2022-10-19T10:35:07.862Z,4.77
2022-10-19T10:36:07.868Z,3.76
2022-10-19T10:37:07.878Z,3.76
2022-10-19T10:38:07.865Z,3.57
2022-10-19T10:39:07.869Z,3.57
2022-10-19T10:40:07.881Z,3.81
2022-10-19T10:41:07.868Z,3.81
2022-10-19T10:42:07.865Z,5.49
2022-10-19T10:43:07.895Z,5.49
2022-10-19T10:44:07.860Z,4.77
2022-10-19T10:45:07.863Z,4.77
2022-10-19T10:46:07.842Z,4.4
2022-10-19T10:47:07.858Z,4.4
2022-10-19T10:49:07.848Z,5.16
2022-10-19T10:50:07.858Z,4.2
2022-10-19T10:51:07.837Z,4.2
2022-10-19T10:52:07.839Z,2.89
2022-10-19T10:53:07.859Z,2.89
2022-10-19T10:54:07.849Z,5.65
2022-10-19T10:55:07.839Z,5.65
2022-10-19T10:56:07.834Z,5.31
2022-10-19T10:57:07.949Z,5.31
2022-10-19T10:58:07.848Z,5.32
2022-10-19T10:59:07.863Z,5.32
2022-10-19T11:00:07.851Z,6.71
2022-10-19T11:01:08.034Z,6.71
2022-10-19T11:02:07.902Z,5.12
2022-10-19T11:03:07.840Z,5.12
2022-10-19T11:04:07.824Z,2.86
2022-10-19T11:05:07.831Z,2.86
2022-10-19T11:06:07.823Z,4.12
2022-10-19T11:07:07.818Z,4.12
2022-10-19T11:08:07.837Z,3.75
2022-10-19T11:09:07.909Z,3.75
2022-10-19T11:10:07.818Z,3.63
2022-10-19T11:11:07.821Z,3.63
2022-10-19T11:12:07.820Z,4.08
2022-10-19T11:13:07.825Z,4.08
2022-10-19T11:14:07.811Z,3.84
2022-10-19T11:15:07.843Z,3.84
2022-10-19T11:16:07.813Z,3.87
2022-10-19T11:17:07.814Z,3.87
2022-10-19T11:18:07.832Z,4.01
2022-10-19T11:19:07.850Z,4.01
2022-10-19T11:20:07.837Z,5.07
2022-10-19T11:21:07.845Z,5.07
2022-10-19T11:22:07.803Z,4.4
2022-10-19T11:23:07.822Z,4.4
2022-10-19T11:24:07.817Z,3.75
2022-10-19T11:25:07.832Z,3.75
2022-10-19T11:26:07.801Z,3.08
2022-10-19T11:27:07.804Z,3.08
2022-10-19T11:28:07.800Z,2.79
2022-10-19T11:29:07.803Z,2.79
2022-10-19T11:30:07.811Z,4.21
2022-10-19T11:31:07.820Z,4.21
2022-10-19T11:32:07.823Z,4.77
2022-10-19T11:33:07.790Z,4.77
2022-10-19T11:34:07.795Z,3.97
2022-10-19T11:35:07.809Z,3.97
2022-10-19T11:36:07.785Z,6.83
2022-10-19T11:37:07.808Z,6.83
2022-10-19T11:38:19.671Z,5.31
2022-10-19T11:39:07.786Z,5.31
2022-10-19T11:40:07.785Z,6.01
2022-10-19T11:41:23.102Z,6.01
2022-10-19T11:42:07.803Z,4.35
2022-10-19T11:43:07.780Z,4.35
2022-10-19T11:44:07.792Z,5.03
2022-10-19T11:45:07.781Z,5.03
2022-10-19T11:46:07.792Z,4.66
2022-10-19T11:47:07.800Z,4.66
2022-10-19T11:48:07.774Z,2.08
2022-10-19T11:49:07.793Z,2.08
2022-10-19T11:51:21.002Z,4.92
2022-10-19T11:52:07.808Z,3.98
2022-10-19T11:53:07.768Z,3.98
2022-10-19T11:54:11.178Z,2.22
2022-10-19T11:55:07.777Z,2.22
2022-10-19T11:56:07.764Z,2.2
2022-10-19T11:57:11.410Z,2.2
2022-10-19T11:58:07.765Z,5.69
2022-10-19T11:59:07.797Z,5.69
2022-10-19T12:00:15.153Z,1.79
2022-10-19T12:01:07.760Z,1.79
2022-10-19T12:02:07.860Z,4.23
2022-10-19T12:03:07.818Z,4.23
2022-10-19T12:04:07.760Z,2.12
2022-10-19T12:05:07.761Z,2.12
2022-10-19T12:06:07.753Z,3.1
2022-10-19T12:07:07.756Z,3.1
2022-10-19T12:08:07.836Z,3.5
2022-10-19T12:09:07.807Z,3.5
2022-10-19T12:10:07.751Z,2.3
2022-10-19T12:11:07.751Z,2.3
2022-10-19T12:12:07.780Z,2.64
2022-10-19T12:13:07.750Z,2.64
2022-10-19T12:14:07.748Z,6.26
2022-10-19T12:15:07.744Z,6.26
2022-10-19T12:16:07.757Z,5.67
2022-10-19T12:17:07.788Z,5.67
2022-10-19T12:18:07.744Z,2.14
2022-10-19T12:19:07.782Z,2.14
2022-10-19T12:20:07.739Z,4.04
2022-10-19T12:21:07.784Z,4.04
2022-10-19T12:22:07.736Z,1.68
2022-10-19T12:23:07.742Z,1.68
2022-10-19T12:24:07.735Z,2.49
2022-10-19T12:25:07.745Z,2.49
2022-10-19T12:26:07.810Z,2.13
2022-10-19T12:27:07.759Z,2.13
2022-10-19T12:28:07.726Z,1.58
2022-10-19T12:29:07.746Z,1.58
2022-10-19T12:30:07.728Z,5.26
2022-10-19T12:31:07.747Z,5.26
2022-10-19T12:32:07.743Z,3.99
2022-10-19T12:33:07.727Z,3.99
2022-10-19T12:34:07.723Z,1.68
2022-10-19T12:35:07.807Z,1.68
2022-10-19T12:36:07.740Z,2.28
2022-10-19T12:37:07.715Z,2.28
2022-10-19T12:38:07.724Z,1.97
2022-10-19T12:39:07.713Z,1.97
2022-10-19T12:40:07.730Z,3.7
2022-10-19T12:41:07.716Z,3.7
2022-10-19T12:42:07.724Z,1.79
2022-10-19T12:43:07.731Z,1.79
2022-10-19T12:44:07.713Z,2.82
2022-10-19T12:45:07.711Z,2.82
2022-10-19T12:46:07.712Z,5.5
2022-10-19T12:47:07.723Z,5.5
2022-10-19T12:48:07.707Z,1.54
2022-10-19T12:49:07.718Z,1.54
2022-10-19T12:50:07.799Z,3.19
2022-10-19T12:51:07.733Z,3.19
2022-10-19T12:52:07.708Z,3.49
2022-10-19T12:53:07.714Z,3.49
2022-10-19T12:54:07.695Z,2.46
2022-10-19T12:55:07.717Z,2.46
2022-10-19T12:56:07.694Z,1.62
2022-10-19T12:57:07.705Z,1.62
2022-10-19T12:58:07.700Z,3.68
2022-10-19T12:59:07.709Z,3.68
2022-10-19T13:00:07.700Z,3.9
2022-10-19T13:01:07.767Z,3.9
2022-10-19T13:02:07.709Z,4.66
2022-10-19T13:03:07.699Z,4.66
2022-10-19T13:04:07.704Z,2.44
2022-10-19T13:05:07.691Z,2.44
2022-10-19T13:06:07.800Z,2.83
2022-10-19T13:07:07.725Z,2.83
2022-10-19T13:08:10.675Z,4.19
2022-10-19T13:09:07.772Z,4.19
2022-10-19T13:10:07.775Z,1.56
2022-10-19T13:11:07.683Z,1.56
2022-10-19T13:12:07.683Z,2.54
2022-10-19T13:13:07.695Z,2.54
2022-10-19T13:14:07.693Z,2.08
2022-10-19T13:15:07.671Z,2.08
2022-10-19T13:16:07.695Z,3.92
2022-10-19T13:17:07.676Z,3.92
2022-10-19T13:18:07.669Z,3.66
2022-10-19T13:19:07.687Z,3.66
2022-10-19T13:20:07.714Z,2.83
2022-10-19T13:21:08.530Z,2.83
2022-10-19T13:22:07.667Z,2.32
2022-10-19T13:23:07.710Z,2.32
2022-10-19T13:24:07.678Z,2.08
2022-10-19T13:25:07.664Z,2.08
2022-10-19T13:26:07.660Z,3.22
2022-10-19T13:27:07.663Z,3.22